首页
METAR-TAF:

METAR-TAF

机场 :

馬丁尼克-亞米-凱薩國際機場

法兰西堡, 馬提尼克

纬度: 14-36N, 经度: 061-00W, 海拔: 5米

当前天气观测

该预报发布于23分钟前的10:30 UTC
风速2节,风向多变
温度 26°C
湿度 94%
气压 1011 hPa
能见度10公里或以上
1500米以下无云,无积雨云

METAR: TFFF 151030Z AUTO VRB02KT CAVOK 26/25 Q1011 NOSIG

时间: 06:53 (10:53 UTC)

预报

该预报发布于6小时和53分钟前的04:00 UTC
预报有效从15日的 06点(UTC)到 16日的 06点(UTC)
风速3节,风向多变
能见度10公里或以上
散云层高于3500英尺
几率 30% :
短暂存在
从 15日的 06点(UTC)到 15日的 10点(UTC)
能見度: 4000
多云层高于1800英尺, 塔状积云.
阵雨
成为
从 15日的 13点(UTC)到 15日的 15点(UTC)
风速8节,风向东转东南
短暂存在
从 15日的 17点(UTC)到 15日的 24点(UTC)
能見度: 2500
多云层高于1800英尺, 塔状积云.
阵雨

TAF: TFFF 150400Z 1506/1606 VRB03KT 9999 SCT035 PROB30 TEMPO 1506/1510 4000 SHRA BKN018TCU BECMG 1513/1515 12008KT TEMPO 1517/1524 2500 SHRA BKN018TCU

超过4000个机场的气象观测和天气预报(METAR&TAF报告)。

可查询的气象台以黄色和红色小点在地图上表示。

将鼠标移到小点上方,可查看气象台名称。

然后点击查看天气观测和预报。

如需切换地图:点击带黑十字的绿色按钮放大地图;点击带横线的绿色按钮缩小地图;或者点击绿色箭头查看邻近地区的地图。


METAR-TAF: